Time;durP1;ratioP1;P1;durP2;ratioP2;P2;SDS_P1;SDS_P2;PMS_P1;PMS_P2;Temp;Humidity;BMP_temperature;BMP_pressure;BME280_temperature;BME280_humidity;BME280_pressure;Samples;Min_cycle;Max_cycle;Signal;HPM_P1;HPM_P2
2021/10/31 00:01:21;;;;;;;;;11.00;8.75;;;;;;;;5137810;27;8771;-75
2021/10/31 00:03:46;;;;;;;;;11.67;8.33;;;;;;;;5137986;27;8783;-75
2021/10/31 00:06:11;;;;;;;;;11.67;11.67;;;;;;;;5137182;27;8819;-75
2021/10/31 00:08:37;;;;;;;;;12.67;11.67;;;;;;;;5137767;27;8770;-75
2021/10/31 00:11:03;;;;;;;;;11.33;11.33;;;;;;;;5137672;27;8856;-77
2021/10/31 00:13:29;;;;;;;;;14.00;13.00;;;;;;;;5137421;27;8867;-75
2021/10/31 00:15:54;;;;;;;;;11.50;10.50;;;;;;;;5119027;27;8806;-77
2021/10/31 00:18:19;;;;;;;;;12.33;10.67;;;;;;;;5118464;27;8826;-77
2021/10/31 00:20:44;;;;;;;;;13.67;12.33;;;;;;;;5137388;27;8790;-77
2021/10/31 00:23:10;;;;;;;;;14.67;13.00;;;;;;;;5137478;27;8897;-75
2021/10/31 00:25:35;;;;;;;;;10.33;10.33;;;;;;;;5119021;27;9596;-74
2021/10/31 00:28:00;;;;;;;;;7.67;7.00;;;;;;;;5118955;27;8861;-75
2021/10/31 00:30:25;;;;;;;;;9.00;9.00;;;;;;;;5109287;28;9536;-74
2021/10/31 00:32:51;;;;;;;;;9.67;9.67;;;;;;;;5116663;28;8941;-77
2021/10/31 00:35:16;;;;;;;;;16.67;13.00;;;;;;;;5116420;28;8902;-76
2021/10/31 00:37:41;;;;;;;;;11.67;11.67;;;;;;;;5116525;28;8801;-77
2021/10/31 00:40:07;;;;;;;;;13.00;12.00;;;;;;;;5116685;28;8805;-77
2021/10/31 00:42:33;;;;;;;;;12.67;12.67;;;;;;;;5116336;28;8785;-77
2021/10/31 00:44:58;;;;;;;;;10.67;10.67;;;;;;;;5098077;28;11454;-75
2021/10/31 00:47:23;;;;;;;;;12.00;11.33;;;;;;;;5098383;28;9023;-75
2021/10/31 00:49:48;;;;;;;;;11.00;10.00;;;;;;;;5116580;28;8809;-74
2021/10/31 00:52:15;;;;;;;;;18.00;15.33;;;;;;;;5098283;28;8835;-74
2021/10/31 00:54:41;;;;;;;;;13.25;13.25;;;;;;;;5098107;28;8801;-74
2021/10/31 00:57:07;;;;;;;;;9.00;8.67;;;;;;;;5116748;28;8846;-74
2021/10/31 00:59:32;;;;;;;;;10.00;10.00;;;;;;;;5097846;28;8846;-75
2021/10/31 01:01:59;;;;;;;;;13.00;12.33;;;;;;;;5116564;28;8921;-74
2021/10/31 01:04:26;;;;;;;;;9.75;9.75;;;;;;;;5116358;28;8785;-75
2021/10/31 01:07:03;;;;;;;;;10.75;10.00;;;;;;;;5116491;28;8776;-78
2021/10/31 01:09:28;;;;;;;;;11.00;11.00;;;;;;;;5116247;28;8765;-77
2021/10/31 01:12:12;;;;;;;;;11.67;11.33;;;;;;;;5116226;28;8800;-77
2021/10/31 01:14:56;;;;;;;;;9.50;9.50;;;;;;;;5116260;28;8844;-78
2021/10/31 01:17:22;;;;;;;;;11.50;10.25;;;;;;;;5097926;28;8989;-74
2021/10/31 01:19:50;;;;;;;;;11.67;11.67;;;;;;;;5100474;28;8832;-77
2021/10/31 01:22:30;;;;;;;;;11.00;10.25;;;;;;;;5119636;28;8796;-75
2021/10/31 01:24:56;;;;;;;;;9.50;9.00;;;;;;;;5101502;28;8788;-75
2021/10/31 01:27:30;;;;;;;;;11.00;8.67;;;;;;;;5119818;28;8788;-77
2021/10/31 01:30:12;;;;;;;;;9.75;8.25;;;;;;;;5124806;27;8861;-76
2021/10/31 01:32:48;;;;;;;;;12.75;12.75;;;;;;;;5121514;27;8790;-77
2021/10/31 01:35:16;;;;;;;;;12.75;9.50;;;;;;;;5121218;27;8874;-77
2021/10/31 01:38:00;;;;;;;;;12.50;10.00;;;;;;;;5139948;27;8786;-77
2021/10/31 01:40:34;;;;;;;;;10.50;10.50;;;;;;;;5139915;27;8809;-75
2021/10/31 01:43:00;;;;;;;;;14.75;14.50;;;;;;;;5121472;27;8817;-75
2021/10/31 01:45:43;;;;;;;;;11.33;11.33;;;;;;;;5140182;27;8909;-75
2021/10/31 01:48:25;;;;;;;;;10.75;9.75;;;;;;;;5140156;27;8810;-75
2021/10/31 01:50:55;;;;;;;;;11.25;10.75;;;;;;;;5140083;27;8825;-75
2021/10/31 01:53:29;;;;;;;;;12.25;10.75;;;;;;;;5139838;27;8758;-75
2021/10/31 01:55:57;;;;;;;;;13.00;10.25;;;;;;;;5140013;27;8871;-75
2021/10/31 01:58:23;;;;;;;;;11.25;11.00;;;;;;;;5121034;27;8802;-75
2021/10/31 02:00:49;;;;;;;;;10.00;10.00;;;;;;;;5139922;27;8794;-74
2021/10/31 02:03:18;;;;;;;;;12.33;12.33;;;;;;;;5139931;27;8813;-77
2021/10/31 02:05:43;;;;;;;;;11.50;11.50;;;;;;;;5139561;27;8786;-77
2021/10/31 02:08:10;;;;;;;;;11.33;11.33;;;;;;;;5139558;27;8802;-77
2021/10/31 02:10:36;;;;;;;;;11.00;10.00;;;;;;;;5121126;27;8810;-77
2021/10/31 02:13:05;;;;;;;;;10.67;9.67;;;;;;;;5139534;27;8787;-75
2021/10/31 02:15:30;;;;;;;;;12.25;12.25;;;;;;;;5139532;27;9724;-78
2021/10/31 02:17:57;;;;;;;;;13.67;13.67;;;;;;;;5139504;27;8766;-75
2021/10/31 02:20:25;;;;;;;;;12.00;12.00;;;;;;;;5139075;27;11465;-75
2021/10/31 02:22:54;;;;;;;;;14.25;10.75;;;;;;;;5139413;27;8793;-75
2021/10/31 02:25:20;;;;;;;;;10.00;10.00;;;;;;;;5120942;27;8824;-75
2021/10/31 02:27:45;;;;;;;;;9.00;9.00;;;;;;;;5139328;27;8767;-75
2021/10/31 02:30:11;;;;;;;;;10.00;10.00;;;;;;;;5112511;28;12242;-75
2021/10/31 02:32:37;;;;;;;;;12.00;11.67;;;;;;;;5100359;28;8789;-75
2021/10/31 02:35:02;;;;;;;;;11.00;11.00;;;;;;;;5118630;28;8832;-74
2021/10/31 02:37:28;;;;;;;;;12.33;11.33;;;;;;;;5118619;28;8870;-75
2021/10/31 02:39:54;;;;;;;;;11.00;9.33;;;;;;;;5118630;28;8820;-75
2021/10/31 02:42:20;;;;;;;;;13.50;12.00;;;;;;;;5118449;28;8777;-74
2021/10/31 02:44:45;;;;;;;;;14.33;14.33;;;;;;;;5118447;28;8805;-75
2021/10/31 02:47:14;;;;;;;;;15.00;13.00;;;;;;;;5118290;28;8801;-77
2021/10/31 02:49:39;;;;;;;;;17.00;13.75;;;;;;;;5118210;28;8777;-78
2021/10/31 02:52:14;;;;;;;;;10.33;10.33;;;;;;;;5118190;28;8804;-75
2021/10/31 02:54:59;;;;;;;;;15.00;13.75;;;;;;;;5118059;28;8773;-77
2021/10/31 02:57:40;;;;;;;;;14.00;13.50;;;;;;;;5117878;28;8773;-78
2021/10/31 03:00:06;;;;;;;;;11.00;11.00;;;;;;;;5118070;28;8902;-77
2021/10/31 03:02:32;;;;;;;;;13.33;11.00;;;;;;;;5117977;28;8800;-75
2021/10/31 03:04:58;;;;;;;;;13.00;11.50;;;;;;;;5118280;28;8757;-74
2021/10/31 03:07:23;;;;;;;;;12.00;12.00;;;;;;;;5117853;28;8881;-75
2021/10/31 03:09:49;;;;;;;;;11.00;10.67;;;;;;;;5099652;28;8852;-75
2021/10/31 03:12:15;;;;;;;;;12.67;11.33;;;;;;;;5118332;28;8871;-75
2021/10/31 03:14:40;;;;;;;;;10.00;10.00;;;;;;;;5099496;28;9634;-75
2021/10/31 03:17:06;;;;;;;;;11.67;11.67;;;;;;;;5118018;28;11459;-76
2021/10/31 03:19:32;;;;;;;;;10.25;9.25;;;;;;;;5099451;28;8768;-75
2021/10/31 03:21:57;;;;;;;;;10.33;10.00;;;;;;;;5117860;28;8773;-75
2021/10/31 03:24:22;;;;;;;;;14.67;14.00;;;;;;;;5118005;28;8868;-75
2021/10/31 03:26:48;;;;;;;;;13.33;11.00;;;;;;;;5117789;28;8836;-77
2021/10/31 03:29:13;;;;;;;;;13.00;13.00;;;;;;;;5117541;28;8796;-77
2021/10/31 03:31:39;;;;;;;;;16.00;16.00;;;;;;;;5137486;27;8850;-77
2021/10/31 03:34:04;;;;;;;;;17.33;14.33;;;;;;;;5138186;27;8798;-77
2021/10/31 03:36:29;;;;;;;;;13.00;12.00;;;;;;;;5119550;27;8920;-77
2021/10/31 03:38:54;;;;;;;;;16.00;15.67;;;;;;;;5138018;27;9669;-78
2021/10/31 03:41:20;;;;;;;;;11.67;11.67;;;;;;;;5137230;27;8922;-75
2021/10/31 03:43:45;;;;;;;;;14.00;13.33;;;;;;;;5138079;27;8893;-75
2021/10/31 03:46:10;;;;;;;;;14.67;14.67;;;;;;;;5119720;27;8905;-75
2021/10/31 03:48:36;;;;;;;;;15.67;13.67;;;;;;;;5138139;27;8774;-79
2021/10/31 03:51:01;;;;;;;;;14.00;14.00;;;;;;;;5137969;27;8888;-77
2021/10/31 03:53:26;;;;;;;;;13.67;13.67;;;;;;;;5137731;27;8786;-78
2021/10/31 03:55:52;;;;;;;;;11.00;11.00;;;;;;;;5137954;27;8799;-77
2021/10/31 03:58:17;;;;;;;;;15.00;15.00;;;;;;;;5137545;27;8801;-78
2021/10/31 04:00:43;;;;;;;;;13.00;13.00;;;;;;;;5137794;27;8779;-78
2021/10/31 04:03:08;;;;;;;;;13.50;13.50;;;;;;;;5137913;27;8771;-75
2021/10/31 04:05:34;;;;;;;;;12.67;12.67;;;;;;;;5137971;27;8878;-75
2021/10/31 04:07:59;;;;;;;;;13.33;13.33;;;;;;;;5137740;27;8824;-75
2021/10/31 04:10:24;;;;;;;;;11.33;11.33;;;;;;;;5119214;27;8873;-75
2021/10/31 04:12:50;;;;;;;;;14.33;14.33;;;;;;;;5137672;27;8783;-74
2021/10/31 04:15:17;;;;;;;;;14.50;12.75;;;;;;;;5137853;27;8790;-75
2021/10/31 04:17:42;;;;;;;;;13.00;12.00;;;;;;;;5137699;27;8786;-75
2021/10/31 04:20:08;;;;;;;;;12.33;11.00;;;;;;;;5137554;27;8914;-75
2021/10/31 04:22:33;;;;;;;;;15.00;12.00;;;;;;;;5137520;27;8790;-76
2021/10/31 04:24:59;;;;;;;;;10.00;10.00;;;;;;;;5119038;27;8836;-78
2021/10/31 04:27:24;;;;;;;;;12.33;11.33;;;;;;;;5137274;27;8818;-77
2021/10/31 04:29:50;;;;;;;;;13.00;13.00;;;;;;;;5114151;28;8848;-77
2021/10/31 04:32:15;;;;;;;;;13.67;13.67;;;;;;;;5098514;28;8812;-78
2021/10/31 04:34:40;;;;;;;;;12.33;12.33;;;;;;;;5116784;28;8838;-77
2021/10/31 04:37:05;;;;;;;;;11.33;11.00;;;;;;;;5116699;28;8824;-75
2021/10/31 04:39:31;;;;;;;;;13.67;12.67;;;;;;;;5116535;28;8784;-75
2021/10/31 04:42:05;;;;;;;;;10.33;9.67;;;;;;;;5116790;28;8805;-75
2021/10/31 04:44:31;;;;;;;;;9.75;9.25;;;;;;;;5116526;28;8788;-75
2021/10/31 04:46:57;;;;;;;;;13.00;10.00;;;;;;;;5098291;28;8816;-77
2021/10/31 04:49:22;;;;;;;;;9.67;8.67;;;;;;;;5116759;28;8796;-74
2021/10/31 04:51:48;;;;;;;;;8.67;8.67;;;;;;;;5098136;28;8840;-74
2021/10/31 04:54:14;;;;;;;;;8.25;8.25;;;;;;;;5120046;28;8733;-75
2021/10/31 04:56:39;;;;;;;;;9.67;8.00;;;;;;;;5101995;28;8864;-75
2021/10/31 04:59:04;;;;;;;;;7.00;6.67;;;;;;;;5101452;28;8832;-75
2021/10/31 05:01:29;;;;;;;;;6.33;6.33;;;;;;;;5120357;28;8809;-75
2021/10/31 05:03:54;;;;;;;;;7.33;7.33;;;;;;;;5120079;28;8824;-78
2021/10/31 05:06:20;;;;;;;;;7.00;7.00;;;;;;;;5120108;28;8891;-77
2021/10/31 05:08:45;;;;;;;;;5.33;4.67;;;;;;;;5101637;28;8841;-77
2021/10/31 05:11:10;;;;;;;;;7.67;7.00;;;;;;;;5119861;28;8905;-77
2021/10/31 05:13:35;;;;;;;;;6.00;6.00;;;;;;;;5119734;28;8796;-77
2021/10/31 05:16:01;;;;;;;;;5.67;5.33;;;;;;;;5101426;28;8831;-76
2021/10/31 05:18:26;;;;;;;;;4.33;4.33;;;;;;;;5119801;28;8788;-75
2021/10/31 05:20:52;;;;;;;;;4.33;4.33;;;;;;;;5119945;28;8824;-77
2021/10/31 05:23:17;;;;;;;;;3.67;3.00;;;;;;;;5119822;28;8803;-77
2021/10/31 05:25:42;;;;;;;;;4.67;3.67;;;;;;;;5101285;28;8870;-77
2021/10/31 05:28:07;;;;;;;;;5.00;3.67;;;;;;;;5119650;28;8809;-78
2021/10/31 05:30:33;;;;;;;;;4.00;4.00;;;;;;;;5130164;27;8858;-78
2021/10/31 05:32:58;;;;;;;;;3.67;3.67;;;;;;;;5140427;27;8770;-77
2021/10/31 05:35:23;;;;;;;;;2.00;2.00;;;;;;;;5140259;27;8810;-75
2021/10/31 05:37:56;;;;;;;;;2.33;1.67;;;;;;;;5156003;27;8824;-75
2021/10/31 05:40:21;;;;;;;;;4.50;4.50;;;;;;;;5140227;27;8795;-75
2021/10/31 05:42:46;;;;;;;;;5.00;3.67;;;;;;;;5140028;27;8782;-74
2021/10/31 05:45:11;;;;;;;;;5.67;4.00;;;;;;;;5140162;27;8782;-76
2021/10/31 05:47:38;;;;;;;;;5.33;5.33;;;;;;;;5121642;27;9465;-78
2021/10/31 05:50:06;;;;;;;;;4.00;4.00;;;;;;;;5139887;27;8810;-77
2021/10/31 05:52:32;;;;;;;;;3.00;3.00;;;;;;;;5139929;27;8758;-77
2021/10/31 05:54:58;;;;;;;;;2.00;2.00;;;;;;;;5139800;27;8923;-78
2021/10/31 05:57:23;;;;;;;;;2.50;2.25;;;;;;;;5121062;27;8806;-78
2021/10/31 05:59:49;;;;;;;;;4.00;4.00;;;;;;;;5139675;27;8883;-75
2021/10/31 06:02:14;;;;;;;;;3.33;3.33;;;;;;;;5139949;27;8813;-78
2021/10/31 06:04:40;;;;;;;;;3.33;2.33;;;;;;;;5138909;27;8861;-77
2021/10/31 06:07:06;;;;;;;;;3.75;3.00;;;;;;;;5139364;27;8794;-78
2021/10/31 06:09:31;;;;;;;;;3.00;3.00;;;;;;;;5121250;27;8812;-76
2021/10/31 06:11:56;;;;;;;;;3.33;3.33;;;;;;;;5120889;27;8818;-77
2021/10/31 06:14:21;;;;;;;;;3.67;3.00;;;;;;;;5120949;27;8806;-75
2021/10/31 06:16:47;;;;;;;;;3.00;3.00;;;;;;;;5121136;27;8802;-75
2021/10/31 06:19:12;;;;;;;;;4.00;4.00;;;;;;;;5139414;27;8834;-75
2021/10/31 06:21:37;;;;;;;;;6.00;6.00;;;;;;;;5139536;27;8806;-76
2021/10/31 06:24:03;;;;;;;;;5.33;4.00;;;;;;;;5155331;27;8794;-78
2021/10/31 06:26:28;;;;;;;;;2.00;2.00;;;;;;;;5139444;27;8848;-78
2021/10/31 06:28:53;;;;;;;;;5.00;4.67;;;;;;;;5155094;27;8798;-78
2021/10/31 06:31:18;;;;;;;;;3.33;2.67;;;;;;;;5121744;27;8934;-77
2021/10/31 06:33:44;;;;;;;;;3.00;3.00;;;;;;;;5118688;28;8819;-78
2021/10/31 06:36:09;;;;;;;;;3.00;3.00;;;;;;;;5118542;28;8813;-77
2021/10/31 06:38:34;;;;;;;;;2.00;2.00;;;;;;;;5118800;28;8793;-75
2021/10/31 06:41:00;;;;;;;;;3.67;3.00;;;;;;;;5118608;28;8800;-77
2021/10/31 06:43:25;;;;;;;;;4.00;4.00;;;;;;;;5100114;28;8827;-75
2021/10/31 06:45:51;;;;;;;;;5.67;5.00;;;;;;;;5118474;28;8793;-75
2021/10/31 06:48:16;;;;;;;;;5.00;3.00;;;;;;;;5118501;28;8772;-77
2021/10/31 06:50:42;;;;;;;;;7.00;4.67;;;;;;;;5118303;28;8934;-76
2021/10/31 06:53:07;;;;;;;;;3.67;3.67;;;;;;;;5099558;28;8800;-77
2021/10/31 06:55:33;;;;;;;;;3.00;3.00;;;;;;;;5118144;28;8792;-77
2021/10/31 06:57:58;;;;;;;;;3.33;3.00;;;;;;;;5099373;28;8815;-76
2021/10/31 07:00:24;;;;;;;;;3.33;3.00;;;;;;;;5117894;28;8800;-77
2021/10/31 07:02:49;;;;;;;;;3.00;3.00;;;;;;;;5099098;28;8933;-75
2021/10/31 07:05:14;;;;;;;;;1.67;1.67;;;;;;;;5118208;28;8797;-76
2021/10/31 07:07:39;;;;;;;;;4.00;4.00;;;;;;;;5118025;28;8868;-75
2021/10/31 07:10:05;;;;;;;;;4.00;4.00;;;;;;;;5117941;28;8831;-75
2021/10/31 07:12:31;;;;;;;;;4.00;4.00;;;;;;;;5118004;28;8765;-75
2021/10/31 07:14:56;;;;;;;;;5.00;5.00;;;;;;;;5117942;28;9600;-76
2021/10/31 07:17:21;;;;;;;;;4.33;4.33;;;;;;;;5118107;28;8831;-73
2021/10/31 07:19:46;;;;;;;;;3.00;3.00;;;;;;;;5117763;28;8869;-76
2021/10/31 07:22:12;;;;;;;;;6.00;5.00;;;;;;;;5117248;28;8901;-76
2021/10/31 07:24:38;;;;;;;;;4.00;4.00;;;;;;;;5117773;28;8850;-76
2021/10/31 07:27:03;;;;;;;;;12.33;10.67;;;;;;;;5115722;28;8809;-75
2021/10/31 07:29:28;;;;;;;;;6.00;6.00;;;;;;;;5098797;27;8804;-77
2021/10/31 07:31:54;;;;;;;;;7.00;4.33;;;;;;;;5115958;28;8852;-78
2021/10/31 07:34:24;;;;;;;;;3.00;3.00;;;;;;;;5105759;28;8793;-78
2021/10/31 07:36:49;;;;;;;;;6.00;5.50;;;;;;;;5088377;28;8757;-78
2021/10/31 07:39:15;;;;;;;;;4.33;4.33;;;;;;;;5086965;28;10050;-77
2021/10/31 07:41:40;;;;;;;;;6.33;5.33;;;;;;;;5107513;28;8924;-77
2021/10/31 07:44:05;;;;;;;;;4.67;4.00;;;;;;;;5097445;28;8828;-76
2021/10/31 07:46:32;;;;;;;;;5.00;5.00;;;;;;;;5115840;28;8817;-75
2021/10/31 07:48:58;;;;;;;;;7.75;5.75;;;;;;;;5097698;28;8800;-76
2021/10/31 07:51:23;;;;;;;;;6.67;6.00;;;;;;;;5105064;28;9573;-75
2021/10/31 07:53:48;;;;;;;;;5.00;5.00;;;;;;;;5106632;28;8789;-76
2021/10/31 07:56:16;;;;;;;;;6.00;4.33;;;;;;;;5104896;28;8818;-76
2021/10/31 07:58:47;;;;;;;;;4.75;4.00;;;;;;;;5116219;28;8897;-76
2021/10/31 08:01:12;;;;;;;;;7.50;7.50;;;;;;;;5117393;28;8768;-76
2021/10/31 08:03:38;;;;;;;;;6.00;6.00;;;;;;;;5107764;27;8823;-78
2021/10/31 08:06:04;;;;;;;;;5.00;4.33;;;;;;;;5116067;28;8793;-76
2021/10/31 08:08:29;;;;;;;;;8.00;7.67;;;;;;;;5116787;28;8882;-79
2021/10/31 08:10:54;;;;;;;;;9.00;8.00;;;;;;;;5116935;28;8852;-78
2021/10/31 08:13:21;;;;;;;;;7.67;7.33;;;;;;;;5116423;28;9530;-78
2021/10/31 08:15:46;;;;;;;;;7.50;7.00;;;;;;;;5106556;27;8803;-78
2021/10/31 08:18:11;;;;;;;;;10.00;8.67;;;;;;;;5106314;28;8819;-78
2021/10/31 08:20:37;;;;;;;;;7.67;6.00;;;;;;;;5097932;28;8832;-75
2021/10/31 08:23:03;;;;;;;;;8.67;8.00;;;;;;;;5116969;28;8796;-75
2021/10/31 08:25:28;;;;;;;;;8.25;8.25;;;;;;;;5114997;28;8765;-75
2021/10/31 08:27:55;;;;;;;;;8.33;8.33;;;;;;;;5097044;28;8811;-76
2021/10/31 08:30:28;;;;;;;;;9.00;8.50;;;;;;;;5124367;27;8787;-77
2021/10/31 08:32:54;;;;;;;;;7.00;7.00;;;;;;;;5116983;27;8943;-74
2021/10/31 08:35:19;;;;;;;;;6.00;6.00;;;;;;;;5116912;28;8757;-74
2021/10/31 08:37:45;;;;;;;;;5.33;5.33;;;;;;;;5098006;28;9539;-74
2021/10/31 08:40:10;;;;;;;;;5.67;4.67;;;;;;;;5098249;28;8804;-74
2021/10/31 08:42:36;;;;;;;;;5.00;5.00;;;;;;;;5116613;28;8785;-74
2021/10/31 08:45:02;;;;;;;;;4.67;3.33;;;;;;;;5115683;28;8816;-74
2021/10/31 08:47:28;;;;;;;;;5.50;4.50;;;;;;;;5114402;28;8773;-77
2021/10/31 08:49:53;;;;;;;;;5.33;5.33;;;;;;;;5084105;28;8814;-76
2021/10/31 08:52:19;;;;;;;;;5.33;5.33;;;;;;;;5103642;28;8831;-76
2021/10/31 08:54:44;;;;;;;;;4.00;4.00;;;;;;;;5111761;28;8824;-77
2021/10/31 08:57:09;;;;;;;;;5.00;5.00;;;;;;;;5103070;28;8810;-77
2021/10/31 08:59:35;;;;;;;;;7.33;6.33;;;;;;;;5095832;28;8812;-79
2021/10/31 09:02:01;;;;;;;;;6.67;6.67;;;;;;;;5095913;28;8902;-78
2021/10/31 09:04:27;;;;;;;;;4.50;4.50;;;;;;;;5116070;28;8791;-75
2021/10/31 09:06:52;;;;;;;;;6.00;5.00;;;;;;;;5098192;28;8801;-77
2021/10/31 09:09:19;;;;;;;;;6.00;6.00;;;;;;;;5097533;28;8819;-73
2021/10/31 09:11:46;;;;;;;;;10.50;8.25;;;;;;;;5116259;28;8788;-74
2021/10/31 09:14:11;;;;;;;;;10.25;10.25;;;;;;;;5097414;28;8804;-74
2021/10/31 09:16:36;;;;;;;;;10.00;10.00;;;;;;;;5116442;28;8769;-74
2021/10/31 09:19:02;;;;;;;;;11.00;9.33;;;;;;;;5097625;28;8832;-75
2021/10/31 09:21:28;;;;;;;;;11.33;10.33;;;;;;;;5116120;28;9601;-78
2021/10/31 09:23:54;;;;;;;;;8.75;8.00;;;;;;;;5116172;28;8773;-78
2021/10/31 09:26:19;;;;;;;;;6.00;5.00;;;;;;;;5116215;28;8768;-76
2021/10/31 09:28:46;;;;;;;;;5.00;3.00;;;;;;;;5115881;28;8785;-76
2021/10/31 09:31:11;;;;;;;;;5.00;5.00;;;;;;;;5114069;27;8798;-77
2021/10/31 09:33:39;;;;;;;;;6.67;5.67;;;;;;;;5136793;27;8809;-75
2021/10/31 09:36:04;;;;;;;;;7.75;5.75;;;;;;;;5136446;27;8790;-75
2021/10/31 09:38:31;;;;;;;;;5.00;5.00;;;;;;;;5109769;27;8847;-75
2021/10/31 09:40:56;;;;;;;;;3.75;3.25;;;;;;;;5117704;28;8807;-75
2021/10/31 09:43:24;;;;;;;;;4.00;4.00;;;;;;;;5100455;28;8817;-76
2021/10/31 09:45:49;;;;;;;;;5.00;4.50;;;;;;;;5119348;28;8789;-75
2021/10/31 09:48:16;;;;;;;;;3.33;3.33;;;;;;;;5116930;28;8820;-75
2021/10/31 09:50:43;;;;;;;;;6.00;4.75;;;;;;;;5106662;28;8834;-74
2021/10/31 09:53:09;;;;;;;;;3.00;3.00;;;;;;;;5109735;28;8784;-77
2021/10/31 09:55:34;;;;;;;;;2.25;2.00;;;;;;;;5092679;28;8858;-77
2021/10/31 09:58:03;;;;;;;;;4.00;3.00;;;;;;;;5118293;28;8788;-78
2021/10/31 10:00:32;;;;;;;;;3.00;3.00;;;;;;;;5117256;28;8816;-77
2021/10/31 10:05:24;;;;;;;;;3.33;3.33;;;;;;;;5117572;28;8816;-76
2021/10/31 10:08:09;;;;;;;;;3.00;3.00;;;;;;;;5117536;28;8776;-76
2021/10/31 10:11:00;;;;;;;;;4.50;4.50;;;;;;;;5117064;28;8821;-74
2021/10/31 10:13:30;;;;;;;;;2.25;2.25;;;;;;;;5113624;28;8881;-76
2021/10/31 10:16:14;;;;;;;;;2.25;2.25;;;;;;;;5099159;28;8761;-75
2021/10/31 10:18:39;;;;;;;;;2.00;2.00;;;;;;;;5114938;28;8807;-76
2021/10/31 10:21:14;;;;;;;;;1.00;1.00;;;;;;;;5118130;28;8805;-75
2021/10/31 10:23:51;;;;;;;;;3.00;3.00;;;;;;;;5096770;27;8906;-78
2021/10/31 10:26:31;;;;;;;;;3.00;3.00;;;;;;;;5132107;27;9752;-78
2021/10/31 10:29:15;;;;;;;;;3.75;3.75;;;;;;;;5127351;27;9675;-78
2021/10/31 10:31:42;;;;;;;;;4.25;3.00;;;;;;;;5138091;27;9767;-78
2021/10/31 10:34:07;;;;;;;;;3.00;3.00;;;;;;;;5120967;27;8746;-78
2021/10/31 10:36:38;;;;;;;;;3.67;3.67;;;;;;;;5139025;27;8774;-79
2021/10/31 10:39:06;;;;;;;;;2.25;2.00;;;;;;;;5107171;27;8808;-77
2021/10/31 10:41:43;;;;;;;;;2.50;2.50;;;;;;;;5118460;28;8793;-77
2021/10/31 10:44:29;;;;;;;;;4.75;4.75;;;;;;;;5118273;28;8769;-79
2021/10/31 10:46:59;;;;;;;;;3.25;3.00;;;;;;;;5117688;27;8784;-78
2021/10/31 10:49:25;;;;;;;;;2.75;2.75;;;;;;;;5118140;28;8879;-78
2021/10/31 10:52:06;;;;;;;;;1.75;1.75;;;;;;;;5115607;28;8729;-78
2021/10/31 10:54:32;;;;;;;;;1.00;1.00;;;;;;;;5118181;28;8815;-75
2021/10/31 10:57:06;;;;;;;;;1.00;1.00;;;;;;;;5117992;28;8907;-75
2021/10/31 10:59:32;;;;;;;;;1.25;1.25;;;;;;;;5099562;28;9631;-77
2021/10/31 11:02:09;;;;;;;;;1.50;1.50;;;;;;;;5118516;28;8875;-78
2021/10/31 11:04:36;;;;;;;;;3.00;3.00;;;;;;;;5118265;28;9523;-79
2021/10/31 11:07:02;;;;;;;;;2.50;2.00;;;;;;;;5118145;27;8765;-79
2021/10/31 11:09:35;;;;;;;;;3.25;3.00;;;;;;;;5086790;28;8825;-78
2021/10/31 11:12:00;;;;;;;;;2.00;2.00;;;;;;;;5097353;28;8841;-77
2021/10/31 11:14:25;;;;;;;;;2.33;2.33;;;;;;;;5083223;28;8819;-77
2021/10/31 11:16:50;;;;;;;;;3.33;2.33;;;;;;;;5099549;28;8919;-75
2021/10/31 11:19:16;;;;;;;;;3.67;2.00;;;;;;;;5099549;28;9655;-75
2021/10/31 11:21:41;;;;;;;;;1.00;1.00;;;;;;;;5117832;28;8785;-76
2021/10/31 11:24:07;;;;;;;;;2.00;2.00;;;;;;;;5118094;28;8866;-76
2021/10/31 11:26:35;;;;;;;;;2.00;2.00;;;;;;;;5118021;27;8831;-75
2021/10/31 11:29:01;;;;;;;;;4.00;2.00;;;;;;;;5117777;28;8794;-75
2021/10/31 11:31:26;;;;;;;;;1.67;1.67;;;;;;;;5135834;27;8830;-75
2021/10/31 11:33:53;;;;;;;;;2.67;2.67;;;;;;;;5138413;27;8845;-75
2021/10/31 11:36:19;;;;;;;;;1.75;1.75;;;;;;;;5138195;27;8755;-77
2021/10/31 11:38:46;;;;;;;;;3.00;1.67;;;;;;;;5119732;27;8875;-77
2021/10/31 11:41:15;;;;;;;;;0.75;0.75;;;;;;;;5138082;27;8851;-77
2021/10/31 11:43:47;;;;;;;;;2.25;2.25;;;;;;;;5138014;27;8739;-77
2021/10/31 11:46:12;;;;;;;;;1.50;1.50;;;;;;;;5138199;27;8834;-78
2021/10/31 11:48:38;;;;;;;;;0.67;0.67;;;;;;;;5138132;27;8774;-75
2021/10/31 11:51:04;;;;;;;;;1.00;1.00;;;;;;;;5138157;27;8920;-78
2021/10/31 11:53:31;;;;;;;;;1.25;1.25;;;;;;;;5137820;27;8751;-77
2021/10/31 11:56:00;;;;;;;;;2.25;2.25;;;;;;;;5138118;27;8785;-78
2021/10/31 11:58:31;;;;;;;;;1.00;1.00;;;;;;;;5137754;27;8766;-75
2021/10/31 12:00:58;;;;;;;;;1.25;1.25;;;;;;;;5137872;27;8766;-75
2021/10/31 12:03:32;;;;;;;;;2.00;1.50;;;;;;;;5137054;27;8731;-75
2021/10/31 12:06:00;;;;;;;;;1.50;1.50;;;;;;;;5137935;27;8783;-76
2021/10/31 12:08:44;;;;;;;;;2.75;2.75;;;;;;;;5137734;27;8774;-75
2021/10/31 12:11:10;;;;;;;;;0.50;0.25;;;;;;;;5119277;27;8818;-76
2021/10/31 12:13:45;;;;;;;;;0.33;0.33;;;;;;;;5137534;27;8795;-79
2021/10/31 12:16:12;;;;;;;;;2.00;2.00;;;;;;;;5137753;27;8763;-79
2021/10/31 12:18:44;;;;;;;;;2.75;2.75;;;;;;;;5137396;27;8838;-77
2021/10/31 12:21:19;;;;;;;;;3.00;2.50;;;;;;;;5129372;27;8824;-78
2021/10/31 12:23:55;;;;;;;;;3.50;3.50;;;;;;;;5096963;28;8835;-78
2021/10/31 12:26:25;;;;;;;;;4.00;3.75;;;;;;;;5098140;28;9732;-79
2021/10/31 12:28:50;;;;;;;;;4.50;4.50;;;;;;;;5097234;28;8809;-76
2021/10/31 12:31:26;;;;;;;;;4.00;4.00;;;;;;;;5115557;27;8871;-74
2021/10/31 12:34:11;;;;;;;;;4.00;4.00;;;;;;;;5116040;27;9773;-74
2021/10/31 12:36:37;;;;;;;;;7.25;6.00;;;;;;;;5116796;28;8779;-76
2021/10/31 12:39:22;;;;;;;;;6.25;6.00;;;;;;;;5098352;28;8806;-75
2021/10/31 12:42:07;;;;;;;;;6.00;4.75;;;;;;;;5116496;28;8768;-75
2021/10/31 12:44:34;;;;;;;;;3.50;3.50;;;;;;;;5116218;28;8789;-76
2021/10/31 12:47:07;;;;;;;;;2.25;2.25;;;;;;;;5115954;28;8805;-75
2021/10/31 12:49:33;;;;;;;;;1.50;1.00;;;;;;;;5113836;28;9679;-75
2021/10/31 12:52:03;;;;;;;;;1.00;1.00;;;;;;;;5098251;28;8850;-77
2021/10/31 12:54:34;;;;;;;;;1.00;1.00;;;;;;;;5097956;28;8789;-78
2021/10/31 12:57:00;;;;;;;;;2.50;2.50;;;;;;;;5116361;28;8761;-77
2021/10/31 12:59:25;;;;;;;;;2.00;2.00;;;;;;;;5089008;28;8792;-80
2021/10/31 13:02:04;;;;;;;;;2.00;2.00;;;;;;;;5113142;28;8811;-77
2021/10/31 13:04:30;;;;;;;;;2.50;2.00;;;;;;;;5116106;28;8771;-78
2021/10/31 13:06:56;;;;;;;;;1.33;1.33;;;;;;;;5114150;28;8949;-78
2021/10/31 13:09:23;;;;;;;;;2.25;2.25;;;;;;;;5116213;28;8769;-80
2021/10/31 13:11:49;;;;;;;;;1.25;1.25;;;;;;;;5115920;28;8737;-77
2021/10/31 13:14:33;;;;;;;;;2.00;1.75;;;;;;;;5117367;28;8789;-77
2021/10/31 13:16:59;;;;;;;;;2.00;2.00;;;;;;;;5119991;28;8749;-81
2021/10/31 13:19:25;;;;;;;;;1.33;1.33;;;;;;;;5119708;28;8825;-81
2021/10/31 13:21:56;;;;;;;;;3.00;3.00;;;;;;;;5119747;28;9576;-80
2021/10/31 13:24:22;;;;;;;;;2.00;2.00;;;;;;;;5119838;28;8757;-82
2021/10/31 13:26:47;;;;;;;;;2.00;2.00;;;;;;;;5119578;28;9566;-80
2021/10/31 13:29:13;;;;;;;;;1.33;1.33;;;;;;;;5119550;28;8816;-78
2021/10/31 13:31:38;;;;;;;;;3.00;3.00;;;;;;;;5139611;27;8826;-80
2021/10/31 13:34:07;;;;;;;;;2.00;2.00;;;;;;;;5140225;27;8783;-77
2021/10/31 13:36:35;;;;;;;;;4.25;4.25;;;;;;;;5140129;27;9744;-77
2021/10/31 13:39:05;;;;;;;;;4.25;4.25;;;;;;;;5140042;27;8871;-76
2021/10/31 13:41:34;;;;;;;;;3.25;2.25;;;;;;;;5140250;27;8810;-75
2021/10/31 13:44:19;;;;;;;;;4.50;4.50;;;;;;;;5139989;27;8789;-86
2021/10/31 13:46:53;;;;;;;;;3.25;2.00;;;;;;;;5139306;27;8731;-78
2021/10/31 13:49:20;;;;;;;;;4.00;4.00;;;;;;;;5140137;27;8895;-78
2021/10/31 13:51:47;;;;;;;;;2.00;2.00;;;;;;;;5140037;27;9996;-78
2021/10/31 13:54:13;;;;;;;;;4.25;2.00;;;;;;;;5139842;27;8758;-78
2021/10/31 13:56:40;;;;;;;;;3.75;3.75;;;;;;;;5140003;27;8759;-82
2021/10/31 13:59:06;;;;;;;;;3.75;3.75;;;;;;;;5139519;27;8762;-79
2021/10/31 14:01:31;;;;;;;;;2.00;2.00;;;;;;;;5121356;27;8798;-79
2021/10/31 14:04:05;;;;;;;;;2.00;2.00;;;;;;;;5139590;27;8779;-79
2021/10/31 14:06:31;;;;;;;;;2.50;2.00;;;;;;;;5121096;27;8779;-80
2021/10/31 14:08:59;;;;;;;;;2.33;2.33;;;;;;;;5139669;27;8824;-79
2021/10/31 14:11:24;;;;;;;;;2.25;2.25;;;;;;;;5139643;27;8757;-78
2021/10/31 14:13:49;;;;;;;;;2.00;2.00;;;;;;;;5120920;27;9530;-79
2021/10/31 14:16:19;;;;;;;;;2.00;2.00;;;;;;;;5139728;27;8790;-79
2021/10/31 14:18:44;;;;;;;;;1.75;1.75;;;;;;;;5139555;27;8787;-78
2021/10/31 14:21:12;;;;;;;;;3.33;3.33;;;;;;;;5139553;27;8822;-77
2021/10/31 14:23:38;;;;;;;;;1.25;1.25;;;;;;;;5139424;27;8793;-77
2021/10/31 14:26:07;;;;;;;;;2.00;2.00;;;;;;;;5138929;27;8938;-75
2021/10/31 14:28:35;;;;;;;;;3.25;2.50;;;;;;;;5120725;27;9680;-77
2021/10/31 14:31:02;;;;;;;;;2.50;2.50;;;;;;;;5124711;27;8831;-85
2021/10/31 14:33:29;;;;;;;;;5.25;4.00;;;;;;;;5100584;28;8784;-82
2021/10/31 14:35:59;;;;;;;;;3.50;3.50;;;;;;;;5113394;28;8794;-80
2021/10/31 14:38:26;;;;;;;;;3.25;3.25;;;;;;;;5117870;28;8779;-82
2021/10/31 14:41:11;;;;;;;;;2.50;2.25;;;;;;;;5118281;27;8777;-83
2021/10/31 14:43:38;;;;;;;;;3.25;3.25;;;;;;;;5118303;28;8777;-76
2021/10/31 14:46:06;;;;;;;;;4.50;4.50;;;;;;;;5117684;28;8857;-77
2021/10/31 14:48:33;;;;;;;;;3.25;2.50;;;;;;;;5118279;28;8741;-78
2021/10/31 14:51:21;;;;;;;;;4.50;4.50;;;;;;;;5118293;28;8854;-77
2021/10/31 14:54:01;;;;;;;;;4.75;4.75;;;;;;;;5118142;28;8765;-77